sensor_id;sensor_type;location;lat;lon;timestamp;P1;durP1;ratioP1;P2;durP2;ratioP2
16824;SDS011;8529;48.108;-1.706;2024-01-15T00:01:08;73.20;;;33.70;;
16824;SDS011;8529;48.108;-1.706;2024-01-15T00:03:35;55.87;;;27.87;;
16824;SDS011;8529;48.108;-1.706;2024-01-15T00:06:02;58.40;;;27.83;;
16824;SDS011;8529;48.108;-1.706;2024-01-15T00:08:30;55.60;;;27.13;;
16824;SDS011;8529;48.108;-1.706;2024-01-15T00:10:57;56.43;;;28.33;;
16824;SDS011;8529;48.108;-1.706;2024-01-15T00:13:25;61.00;;;28.30;;
16824;SDS011;8529;48.108;-1.706;2024-01-15T00:15:52;56.03;;;27.80;;
16824;SDS011;8529;48.108;-1.706;2024-01-15T00:18:20;55.90;;;26.87;;
16824;SDS011;8529;48.108;-1.706;2024-01-15T00:20:47;64.07;;;28.27;;
16824;SDS011;8529;48.108;-1.706;2024-01-15T00:23:14;55.47;;;26.73;;
16824;SDS011;8529;48.108;-1.706;2024-01-15T00:25:41;53.77;;;27.43;;
16824;SDS011;8529;48.108;-1.706;2024-01-15T00:28:08;63.20;;;30.17;;
16824;SDS011;8529;48.108;-1.706;2024-01-15T00:30:37;53.00;;;26.07;;
16824;SDS011;8529;48.108;-1.706;2024-01-15T00:33:04;52.27;;;26.40;;
16824;SDS011;8529;48.108;-1.706;2024-01-15T00:35:31;57.23;;;28.10;;
16824;SDS011;8529;48.108;-1.706;2024-01-15T00:37:58;59.03;;;28.00;;
16824;SDS011;8529;48.108;-1.706;2024-01-15T00:40:25;58.83;;;27.53;;
16824;SDS011;8529;48.108;-1.706;2024-01-15T00:42:52;54.03;;;28.20;;
16824;SDS011;8529;48.108;-1.706;2024-01-15T00:45:19;53.77;;;25.63;;
16824;SDS011;8529;48.108;-1.706;2024-01-15T00:47:48;52.57;;;25.97;;
16824;SDS011;8529;48.108;-1.706;2024-01-15T00:50:15;53.77;;;25.83;;
16824;SDS011;8529;48.108;-1.706;2024-01-15T00:52:42;53.07;;;25.07;;
16824;SDS011;8529;48.108;-1.706;2024-01-15T00:55:10;57.63;;;26.47;;
16824;SDS011;8529;48.108;-1.706;2024-01-15T00:57:37;54.47;;;25.47;;
16824;SDS011;8529;48.108;-1.706;2024-01-15T01:00:05;49.43;;;24.03;;
16824;SDS011;8529;48.108;-1.706;2024-01-15T01:02:33;53.03;;;24.17;;
16824;SDS011;8529;48.108;-1.706;2024-01-15T01:05:02;52.17;;;23.93;;
16824;SDS011;8529;48.108;-1.706;2024-01-15T01:07:29;51.33;;;25.23;;
16824;SDS011;8529;48.108;-1.706;2024-01-15T01:09:56;51.40;;;24.37;;
16824;SDS011;8529;48.108;-1.706;2024-01-15T01:12:23;53.90;;;25.10;;
16824;SDS011;8529;48.108;-1.706;2024-01-15T01:14:51;53.33;;;23.53;;
16824;SDS011;8529;48.108;-1.706;2024-01-15T01:17:18;55.63;;;25.13;;
16824;SDS011;8529;48.108;-1.706;2024-01-15T01:19:45;53.43;;;24.57;;
16824;SDS011;8529;48.108;-1.706;2024-01-15T01:22:13;54.27;;;25.20;;
16824;SDS011;8529;48.108;-1.706;2024-01-15T01:24:40;46.80;;;23.37;;
16824;SDS011;8529;48.108;-1.706;2024-01-15T01:27:08;52.80;;;25.80;;
16824;SDS011;8529;48.108;-1.706;2024-01-15T01:29:35;53.00;;;25.40;;
16824;SDS011;8529;48.108;-1.706;2024-01-15T01:32:02;54.70;;;24.83;;
16824;SDS011;8529;48.108;-1.706;2024-01-15T01:34:29;52.20;;;24.53;;
16824;SDS011;8529;48.108;-1.706;2024-01-15T01:36:57;52.10;;;25.47;;
16824;SDS011;8529;48.108;-1.706;2024-01-15T01:39:26;54.83;;;26.27;;
16824;SDS011;8529;48.108;-1.706;2024-01-15T01:41:53;46.30;;;23.77;;
16824;SDS011;8529;48.108;-1.706;2024-01-15T01:44:20;53.00;;;24.30;;
16824;SDS011;8529;48.108;-1.706;2024-01-15T01:46:47;50.73;;;24.17;;
16824;SDS011;8529;48.108;-1.706;2024-01-15T01:49:15;49.07;;;23.13;;
16824;SDS011;8529;48.108;-1.706;2024-01-15T01:51:42;47.50;;;23.20;;
16824;SDS011;8529;48.108;-1.706;2024-01-15T01:54:10;50.13;;;23.70;;
16824;SDS011;8529;48.108;-1.706;2024-01-15T01:56:40;51.13;;;23.33;;
16824;SDS011;8529;48.108;-1.706;2024-01-15T01:59:09;44.10;;;21.03;;
16824;SDS011;8529;48.108;-1.706;2024-01-15T02:01:36;45.60;;;22.53;;
16824;SDS011;8529;48.108;-1.706;2024-01-15T02:04:03;48.43;;;23.07;;
16824;SDS011;8529;48.108;-1.706;2024-01-15T02:06:31;48.77;;;23.30;;
16824;SDS011;8529;48.108;-1.706;2024-01-15T02:08:58;45.13;;;22.50;;
16824;SDS011;8529;48.108;-1.706;2024-01-15T02:11:25;48.33;;;23.10;;
16824;SDS011;8529;48.108;-1.706;2024-01-15T02:13:54;48.17;;;22.47;;
16824;SDS011;8529;48.108;-1.706;2024-01-15T02:16:21;44.83;;;22.33;;
16824;SDS011;8529;48.108;-1.706;2024-01-15T02:18:48;48.43;;;22.53;;
16824;SDS011;8529;48.108;-1.706;2024-01-15T02:21:15;49.70;;;21.87;;
16824;SDS011;8529;48.108;-1.706;2024-01-15T02:23:44;49.37;;;23.47;;
16824;SDS011;8529;48.108;-1.706;2024-01-15T02:26:11;48.20;;;21.63;;
16824;SDS011;8529;48.108;-1.706;2024-01-15T02:28:39;50.83;;;22.43;;
16824;SDS011;8529;48.108;-1.706;2024-01-15T02:31:06;52.60;;;24.30;;
16824;SDS011;8529;48.108;-1.706;2024-01-15T02:33:33;46.67;;;22.47;;
16824;SDS011;8529;48.108;-1.706;2024-01-15T02:36:01;45.63;;;22.60;;
16824;SDS011;8529;48.108;-1.706;2024-01-15T02:38:28;48.40;;;23.97;;
16824;SDS011;8529;48.108;-1.706;2024-01-15T02:40:56;43.90;;;21.20;;
16824;SDS011;8529;48.108;-1.706;2024-01-15T02:43:24;46.40;;;20.77;;
16824;SDS011;8529;48.108;-1.706;2024-01-15T02:45:51;51.80;;;23.00;;
16824;SDS011;8529;48.108;-1.706;2024-01-15T02:48:18;49.10;;;22.27;;
16824;SDS011;8529;48.108;-1.706;2024-01-15T02:50:45;48.63;;;22.07;;
16824;SDS011;8529;48.108;-1.706;2024-01-15T02:53:12;41.17;;;20.33;;
16824;SDS011;8529;48.108;-1.706;2024-01-15T02:55:39;50.77;;;22.13;;
16824;SDS011;8529;48.108;-1.706;2024-01-15T02:58:08;48.67;;;20.77;;
16824;SDS011;8529;48.108;-1.706;2024-01-15T03:00:35;47.20;;;21.80;;
16824;SDS011;8529;48.108;-1.706;2024-01-15T03:03:02;45.40;;;21.43;;
16824;SDS011;8529;48.108;-1.706;2024-01-15T03:05:29;45.27;;;22.33;;
16824;SDS011;8529;48.108;-1.706;2024-01-15T03:07:56;49.47;;;21.73;;
16824;SDS011;8529;48.108;-1.706;2024-01-15T03:10:24;44.13;;;20.27;;
16824;SDS011;8529;48.108;-1.706;2024-01-15T03:12:51;41.73;;;19.00;;
16824;SDS011;8529;48.108;-1.706;2024-01-15T03:15:19;41.47;;;19.20;;
16824;SDS011;8529;48.108;-1.706;2024-01-15T03:17:46;42.23;;;18.87;;
16824;SDS011;8529;48.108;-1.706;2024-01-15T03:20:14;42.97;;;19.60;;
16824;SDS011;8529;48.108;-1.706;2024-01-15T03:22:41;44.83;;;19.73;;
16824;SDS011;8529;48.108;-1.706;2024-01-15T03:25:08;40.77;;;19.47;;
16824;SDS011;8529;48.108;-1.706;2024-01-15T03:27:35;44.07;;;20.53;;
16824;SDS011;8529;48.108;-1.706;2024-01-15T03:30:03;45.33;;;20.70;;
16824;SDS011;8529;48.108;-1.706;2024-01-15T03:32:31;42.77;;;20.23;;
16824;SDS011;8529;48.108;-1.706;2024-01-15T03:34:58;41.33;;;19.67;;
16824;SDS011;8529;48.108;-1.706;2024-01-15T03:37:26;41.43;;;18.63;;
16824;SDS011;8529;48.108;-1.706;2024-01-15T03:39:53;37.93;;;19.33;;
16824;SDS011;8529;48.108;-1.706;2024-01-15T03:42:20;39.57;;;18.37;;
16824;SDS011;8529;48.108;-1.706;2024-01-15T03:44:47;36.03;;;17.83;;
16824;SDS011;8529;48.108;-1.706;2024-01-15T03:47:14;36.37;;;18.83;;
16824;SDS011;8529;48.108;-1.706;2024-01-15T03:49:43;38.07;;;19.27;;
16824;SDS011;8529;48.108;-1.706;2024-01-15T03:52:10;36.60;;;18.20;;
16824;SDS011;8529;48.108;-1.706;2024-01-15T03:54:37;37.00;;;18.40;;
16824;SDS011;8529;48.108;-1.706;2024-01-15T03:57:04;35.73;;;18.27;;
16824;SDS011;8529;48.108;-1.706;2024-01-15T03:59:31;39.17;;;17.27;;
16824;SDS011;8529;48.108;-1.706;2024-01-15T04:01:58;32.10;;;16.00;;
16824;SDS011;8529;48.108;-1.706;2024-01-15T04:04:26;34.33;;;17.40;;
16824;SDS011;8529;48.108;-1.706;2024-01-15T04:06:54;36.53;;;17.43;;
16824;SDS011;8529;48.108;-1.706;2024-01-15T04:09:21;38.13;;;16.50;;
16824;SDS011;8529;48.108;-1.706;2024-01-15T04:11:48;37.83;;;17.30;;
16824;SDS011;8529;48.108;-1.706;2024-01-15T04:14:16;33.43;;;15.43;;
16824;SDS011;8529;48.108;-1.706;2024-01-15T04:16:43;35.97;;;16.53;;
16824;SDS011;8529;48.108;-1.706;2024-01-15T04:19:10;36.80;;;18.40;;
16824;SDS011;8529;48.108;-1.706;2024-01-15T04:21:37;38.30;;;17.53;;
16824;SDS011;8529;48.108;-1.706;2024-01-15T04:24:06;33.83;;;16.37;;
16824;SDS011;8529;48.108;-1.706;2024-01-15T04:26:33;34.50;;;16.80;;
16824;SDS011;8529;48.108;-1.706;2024-01-15T04:29:00;32.70;;;15.80;;
16824;SDS011;8529;48.108;-1.706;2024-01-15T04:31:27;37.60;;;17.73;;
16824;SDS011;8529;48.108;-1.706;2024-01-15T04:33:54;33.37;;;16.83;;
16824;SDS011;8529;48.108;-1.706;2024-01-15T04:36:21;36.63;;;17.43;;
16824;SDS011;8529;48.108;-1.706;2024-01-15T04:38:49;37.60;;;17.07;;
16824;SDS011;8529;48.108;-1.706;2024-01-15T04:41:17;34.00;;;17.77;;
16824;SDS011;8529;48.108;-1.706;2024-01-15T04:43:44;42.50;;;19.87;;
16824;SDS011;8529;48.108;-1.706;2024-01-15T04:46:11;40.63;;;17.90;;
16824;SDS011;8529;48.108;-1.706;2024-01-15T04:48:38;39.67;;;18.17;;
16824;SDS011;8529;48.108;-1.706;2024-01-15T04:51:08;35.37;;;16.30;;
16824;SDS011;8529;48.108;-1.706;2024-01-15T04:53:35;37.83;;;17.17;;
16824;SDS011;8529;48.108;-1.706;2024-01-15T04:56:02;39.13;;;17.27;;
16824;SDS011;8529;48.108;-1.706;2024-01-15T04:58:31;37.33;;;17.60;;
16824;SDS011;8529;48.108;-1.706;2024-01-15T05:00:58;39.53;;;17.67;;
16824;SDS011;8529;48.108;-1.706;2024-01-15T05:03:25;37.57;;;17.83;;
16824;SDS011;8529;48.108;-1.706;2024-01-15T05:05:52;37.47;;;16.17;;
16824;SDS011;8529;48.108;-1.706;2024-01-15T05:08:20;35.23;;;16.30;;
16824;SDS011;8529;48.108;-1.706;2024-01-15T05:10:47;30.97;;;15.03;;
16824;SDS011;8529;48.108;-1.706;2024-01-15T05:13:14;32.83;;;16.00;;
16824;SDS011;8529;48.108;-1.706;2024-01-15T05:15:42;33.50;;;15.57;;
16824;SDS011;8529;48.108;-1.706;2024-01-15T05:18:10;31.63;;;15.17;;
16824;SDS011;8529;48.108;-1.706;2024-01-15T05:20:36;34.67;;;15.03;;
16824;SDS011;8529;48.108;-1.706;2024-01-15T05:23:03;31.83;;;14.50;;
16824;SDS011;8529;48.108;-1.706;2024-01-15T05:25:30;32.53;;;15.30;;
16824;SDS011;8529;48.108;-1.706;2024-01-15T05:27:57;31.30;;;15.27;;
16824;SDS011;8529;48.108;-1.706;2024-01-15T05:30:25;30.83;;;15.63;;
16824;SDS011;8529;48.108;-1.706;2024-01-15T05:32:53;30.43;;;14.77;;
16824;SDS011;8529;48.108;-1.706;2024-01-15T05:35:20;30.60;;;16.13;;
16824;SDS011;8529;48.108;-1.706;2024-01-15T05:37:47;29.97;;;13.97;;
16824;SDS011;8529;48.108;-1.706;2024-01-15T05:40:14;28.13;;;14.80;;
16824;SDS011;8529;48.108;-1.706;2024-01-15T05:42:41;30.87;;;15.70;;
16824;SDS011;8529;48.108;-1.706;2024-01-15T05:45:08;29.20;;;14.37;;
16824;SDS011;8529;48.108;-1.706;2024-01-15T05:47:36;33.93;;;15.47;;
16824;SDS011;8529;48.108;-1.706;2024-01-15T05:50:05;29.73;;;14.53;;
16824;SDS011;8529;48.108;-1.706;2024-01-15T05:52:32;28.97;;;15.43;;
16824;SDS011;8529;48.108;-1.706;2024-01-15T05:54:59;29.50;;;15.03;;
16824;SDS011;8529;48.108;-1.706;2024-01-15T05:57:26;26.57;;;14.27;;
16824;SDS011;8529;48.108;-1.706;2024-01-15T05:59:54;33.93;;;14.80;;
16824;SDS011;8529;48.108;-1.706;2024-01-15T06:02:21;30.33;;;15.83;;
16824;SDS011;8529;48.108;-1.706;2024-01-15T06:04:48;31.30;;;15.87;;
16824;SDS011;8529;48.108;-1.706;2024-01-15T06:07:16;32.90;;;15.83;;
16824;SDS011;8529;48.108;-1.706;2024-01-15T06:09:43;31.57;;;13.97;;
16824;SDS011;8529;48.108;-1.706;2024-01-15T06:12:10;29.87;;;14.30;;
16824;SDS011;8529;48.108;-1.706;2024-01-15T06:14:37;27.90;;;13.67;;
16824;SDS011;8529;48.108;-1.706;2024-01-15T06:17:04;25.23;;;13.70;;
16824;SDS011;8529;48.108;-1.706;2024-01-15T06:19:31;31.67;;;14.53;;
16824;SDS011;8529;48.108;-1.706;2024-01-15T06:21:58;29.97;;;14.50;;
16824;SDS011;8529;48.108;-1.706;2024-01-15T06:24:27;30.77;;;15.17;;
16824;SDS011;8529;48.108;-1.706;2024-01-15T06:26:54;32.70;;;14.80;;
16824;SDS011;8529;48.108;-1.706;2024-01-15T06:29:21;29.70;;;13.93;;
16824;SDS011;8529;48.108;-1.706;2024-01-15T06:31:49;30.20;;;14.27;;
16824;SDS011;8529;48.108;-1.706;2024-01-15T06:34:16;32.70;;;15.40;;
16824;SDS011;8529;48.108;-1.706;2024-01-15T06:36:43;25.93;;;12.93;;
16824;SDS011;8529;48.108;-1.706;2024-01-15T06:39:10;29.20;;;14.83;;
16824;SDS011;8529;48.108;-1.706;2024-01-15T06:41:39;28.30;;;13.70;;
16824;SDS011;8529;48.108;-1.706;2024-01-15T06:44:08;27.43;;;15.03;;
16824;SDS011;8529;48.108;-1.706;2024-01-15T06:46:36;31.17;;;15.40;;
16824;SDS011;8529;48.108;-1.706;2024-01-15T06:49:03;29.20;;;15.23;;
16824;SDS011;8529;48.108;-1.706;2024-01-15T06:51:30;31.97;;;15.97;;
16824;SDS011;8529;48.108;-1.706;2024-01-15T06:53:57;28.90;;;14.97;;
16824;SDS011;8529;48.108;-1.706;2024-01-15T06:56:24;32.37;;;15.60;;
16824;SDS011;8529;48.108;-1.706;2024-01-15T06:58:53;30.60;;;15.57;;
16824;SDS011;8529;48.108;-1.706;2024-01-15T07:01:20;36.30;;;15.87;;
16824;SDS011;8529;48.108;-1.706;2024-01-15T07:03:47;34.77;;;16.30;;
16824;SDS011;8529;48.108;-1.706;2024-01-15T07:06:14;37.97;;;16.67;;
16824;SDS011;8529;48.108;-1.706;2024-01-15T07:08:41;33.80;;;16.07;;
16824;SDS011;8529;48.108;-1.706;2024-01-15T07:11:09;33.80;;;16.83;;
16824;SDS011;8529;48.108;-1.706;2024-01-15T07:13:36;32.17;;;16.47;;
16824;SDS011;8529;48.108;-1.706;2024-01-15T07:16:05;32.57;;;15.83;;
16824;SDS011;8529;48.108;-1.706;2024-01-15T07:18:32;35.80;;;16.70;;
16824;SDS011;8529;48.108;-1.706;2024-01-15T07:20:59;30.13;;;14.60;;
16824;SDS011;8529;48.108;-1.706;2024-01-15T07:23:27;35.80;;;15.97;;
16824;SDS011;8529;48.108;-1.706;2024-01-15T07:25:55;28.40;;;15.00;;
16824;SDS011;8529;48.108;-1.706;2024-01-15T07:28:22;29.37;;;14.60;;
16824;SDS011;8529;48.108;-1.706;2024-01-15T07:30:49;33.87;;;16.90;;
16824;SDS011;8529;48.108;-1.706;2024-01-15T07:33:18;25.10;;;13.57;;
16824;SDS011;8529;48.108;-1.706;2024-01-15T07:35:45;28.33;;;14.23;;
16824;SDS011;8529;48.108;-1.706;2024-01-15T07:38:12;27.63;;;13.73;;
16824;SDS011;8529;48.108;-1.706;2024-01-15T07:40:40;25.87;;;12.53;;
16824;SDS011;8529;48.108;-1.706;2024-01-15T07:43:07;30.10;;;14.13;;
16824;SDS011;8529;48.108;-1.706;2024-01-15T07:45:34;26.10;;;13.70;;
16824;SDS011;8529;48.108;-1.706;2024-01-15T07:48:01;27.67;;;13.70;;
16824;SDS011;8529;48.108;-1.706;2024-01-15T07:50:30;28.57;;;13.77;;
16824;SDS011;8529;48.108;-1.706;2024-01-15T07:52:57;24.97;;;12.73;;
16824;SDS011;8529;48.108;-1.706;2024-01-15T07:55:24;29.70;;;14.87;;
16824;SDS011;8529;48.108;-1.706;2024-01-15T07:57:52;26.30;;;13.30;;
16824;SDS011;8529;48.108;-1.706;2024-01-15T08:00:23;31.00;;;15.43;;
16824;SDS011;8529;48.108;-1.706;2024-01-15T08:02:50;30.80;;;14.40;;
16824;SDS011;8529;48.108;-1.706;2024-01-15T08:05:18;28.93;;;13.90;;
16824;SDS011;8529;48.108;-1.706;2024-01-15T08:07:47;29.80;;;14.63;;
16824;SDS011;8529;48.108;-1.706;2024-01-15T08:10:14;28.27;;;14.13;;
16824;SDS011;8529;48.108;-1.706;2024-01-15T08:12:41;27.33;;;14.07;;
16824;SDS011;8529;48.108;-1.706;2024-01-15T08:15:09;26.20;;;13.63;;
16824;SDS011;8529;48.108;-1.706;2024-01-15T08:17:36;30.87;;;14.40;;
16824;SDS011;8529;48.108;-1.706;2024-01-15T08:20:03;27.07;;;13.97;;
16824;SDS011;8529;48.108;-1.706;2024-01-15T08:22:31;29.37;;;14.27;;
16824;SDS011;8529;48.108;-1.706;2024-01-15T08:24:59;30.40;;;14.37;;
16824;SDS011;8529;48.108;-1.706;2024-01-15T08:27:26;27.37;;;13.73;;
16824;SDS011;8529;48.108;-1.706;2024-01-15T08:29:53;29.87;;;14.93;;
16824;SDS011;8529;48.108;-1.706;2024-01-15T08:32:20;29.37;;;14.13;;
16824;SDS011;8529;48.108;-1.706;2024-01-15T08:34:48;30.33;;;15.40;;
16824;SDS011;8529;48.108;-1.706;2024-01-15T08:37:17;26.60;;;13.97;;
16824;SDS011;8529;48.108;-1.706;2024-01-15T08:39:44;26.97;;;14.43;;
16824;SDS011;8529;48.108;-1.706;2024-01-15T08:42:13;31.63;;;14.77;;
16824;SDS011;8529;48.108;-1.706;2024-01-15T08:44:40;28.83;;;14.57;;
16824;SDS011;8529;48.108;-1.706;2024-01-15T08:47:08;27.53;;;12.93;;
16824;SDS011;8529;48.108;-1.706;2024-01-15T08:49:35;27.23;;;14.20;;
16824;SDS011;8529;48.108;-1.706;2024-01-15T08:52:03;30.00;;;13.83;;
16824;SDS011;8529;48.108;-1.706;2024-01-15T08:54:30;27.40;;;13.00;;
16824;SDS011;8529;48.108;-1.706;2024-01-15T08:56:57;28.87;;;14.53;;
16824;SDS011;8529;48.108;-1.706;2024-01-15T08:59:26;31.63;;;14.70;;
16824;SDS011;8529;48.108;-1.706;2024-01-15T09:01:53;24.10;;;12.23;;
16824;SDS011;8529;48.108;-1.706;2024-01-15T09:04:22;29.27;;;13.23;;
16824;SDS011;8529;48.108;-1.706;2024-01-15T09:06:49;23.80;;;13.43;;
16824;SDS011;8529;48.108;-1.706;2024-01-15T09:09:16;27.07;;;13.43;;
16824;SDS011;8529;48.108;-1.706;2024-01-15T09:11:44;29.67;;;13.50;;
16824;SDS011;8529;48.108;-1.706;2024-01-15T09:14:12;31.23;;;13.93;;
16824;SDS011;8529;48.108;-1.706;2024-01-15T09:16:41;28.10;;;14.10;;
16824;SDS011;8529;48.108;-1.706;2024-01-15T09:19:08;28.87;;;15.70;;
16824;SDS011;8529;48.108;-1.706;2024-01-15T09:21:35;28.83;;;14.83;;
16824;SDS011;8529;48.108;-1.706;2024-01-15T09:24:02;31.23;;;16.27;;
16824;SDS011;8529;48.108;-1.706;2024-01-15T09:26:29;32.03;;;15.63;;
16824;SDS011;8529;48.108;-1.706;2024-01-15T09:28:57;32.87;;;14.97;;
16824;SDS011;8529;48.108;-1.706;2024-01-15T09:31:24;31.47;;;16.47;;
16824;SDS011;8529;48.108;-1.706;2024-01-15T09:33:53;33.27;;;15.93;;
16824;SDS011;8529;48.108;-1.706;2024-01-15T09:36:21;36.50;;;16.80;;
16824;SDS011;8529;48.108;-1.706;2024-01-15T09:38:48;35.67;;;16.60;;
16824;SDS011;8529;48.108;-1.706;2024-01-15T09:41:16;36.47;;;17.00;;
16824;SDS011;8529;48.108;-1.706;2024-01-15T09:43:43;37.87;;;17.40;;
16824;SDS011;8529;48.108;-1.706;2024-01-15T09:46:10;31.63;;;15.83;;
16824;SDS011;8529;48.108;-1.706;2024-01-15T09:48:38;33.23;;;16.13;;
16824;SDS011;8529;48.108;-1.706;2024-01-15T09:51:07;30.73;;;14.30;;
16824;SDS011;8529;48.108;-1.706;2024-01-15T09:53:35;28.20;;;14.47;;
16824;SDS011;8529;48.108;-1.706;2024-01-15T09:56:02;27.20;;;12.57;;
16824;SDS011;8529;48.108;-1.706;2024-01-15T09:58:30;33.40;;;13.33;;
16824;SDS011;8529;48.108;-1.706;2024-01-15T10:00:58;28.13;;;13.00;;
16824;SDS011;8529;48.108;-1.706;2024-01-15T10:03:26;29.90;;;12.77;;
16824;SDS011;8529;48.108;-1.706;2024-01-15T10:05:53;26.40;;;11.50;;
16824;SDS011;8529;48.108;-1.706;2024-01-15T10:08:22;23.27;;;11.20;;
16824;SDS011;8529;48.108;-1.706;2024-01-15T10:10:50;22.50;;;10.40;;
16824;SDS011;8529;48.108;-1.706;2024-01-15T10:13:17;18.77;;;10.20;;
16824;SDS011;8529;48.108;-1.706;2024-01-15T10:15:46;21.93;;;10.70;;
16824;SDS011;8529;48.108;-1.706;2024-01-15T10:18:13;21.73;;;10.50;;
16824;SDS011;8529;48.108;-1.706;2024-01-15T10:20:40;18.80;;;9.10;;
16824;SDS011;8529;48.108;-1.706;2024-01-15T10:23:07;19.77;;;9.43;;
16824;SDS011;8529;48.108;-1.706;2024-01-15T10:25:36;18.37;;;8.87;;
16824;SDS011;8529;48.108;-1.706;2024-01-15T10:28:03;18.93;;;9.40;;
16824;SDS011;8529;48.108;-1.706;2024-01-15T10:30:31;21.57;;;9.30;;
16824;SDS011;8529;48.108;-1.706;2024-01-15T10:32:59;13.83;;;7.30;;
16824;SDS011;8529;48.108;-1.706;2024-01-15T10:35:27;13.93;;;7.10;;
16824;SDS011;8529;48.108;-1.706;2024-01-15T10:37:54;15.73;;;6.97;;
16824;SDS011;8529;48.108;-1.706;2024-01-15T10:40:21;15.07;;;6.73;;
16824;SDS011;8529;48.108;-1.706;2024-01-15T10:42:50;13.93;;;6.50;;
16824;SDS011;8529;48.108;-1.706;2024-01-15T10:45:17;12.17;;;6.13;;
16824;SDS011;8529;48.108;-1.706;2024-01-15T10:47:44;11.13;;;5.97;;
16824;SDS011;8529;48.108;-1.706;2024-01-15T10:50:12;14.47;;;6.10;;
16824;SDS011;8529;48.108;-1.706;2024-01-15T10:52:39;9.37;;;4.97;;
16824;SDS011;8529;48.108;-1.706;2024-01-15T10:55:08;10.60;;;5.33;;
16824;SDS011;8529;48.108;-1.706;2024-01-15T10:57:36;9.27;;;4.43;;
16824;SDS011;8529;48.108;-1.706;2024-01-15T11:00:06;11.50;;;5.10;;
16824;SDS011;8529;48.108;-1.706;2024-01-15T11:02:34;11.30;;;5.17;;
16824;SDS011;8529;48.108;-1.706;2024-01-15T11:05:02;12.00;;;5.00;;
16824;SDS011;8529;48.108;-1.706;2024-01-15T11:07:29;11.27;;;5.53;;
16824;SDS011;8529;48.108;-1.706;2024-01-15T11:09:57;10.23;;;5.40;;
16824;SDS011;8529;48.108;-1.706;2024-01-15T11:12:24;10.03;;;5.47;;
16824;SDS011;8529;48.108;-1.706;2024-01-15T11:14:51;10.03;;;5.23;;
16824;SDS011;8529;48.108;-1.706;2024-01-15T11:17:21;11.23;;;5.60;;
16824;SDS011;8529;48.108;-1.706;2024-01-15T11:19:48;12.43;;;5.90;;
16824;SDS011;8529;48.108;-1.706;2024-01-15T11:25:02;11.00;;;5.57;;
16824;SDS011;8529;48.108;-1.706;2024-01-15T11:27:39;9.93;;;5.47;;
16824;SDS011;8529;48.108;-1.706;2024-01-15T11:30:08;11.33;;;4.10;;
16824;SDS011;8529;48.108;-1.706;2024-01-15T11:32:37;5.43;;;3.23;;
16824;SDS011;8529;48.108;-1.706;2024-01-15T11:35:06;6.90;;;3.40;;
16824;SDS011;8529;48.108;-1.706;2024-01-15T11:40:17;6.73;;;3.80;;
16824;SDS011;8529;48.108;-1.706;2024-01-15T11:42:45;8.30;;;3.53;;
16824;SDS011;8529;48.108;-1.706;2024-01-15T11:45:12;7.03;;;3.53;;
16824;SDS011;8529;48.108;-1.706;2024-01-15T11:47:53;9.33;;;3.77;;
16824;SDS011;8529;48.108;-1.706;2024-01-15T11:50:25;8.47;;;3.97;;
16824;SDS011;8529;48.108;-1.706;2024-01-15T11:52:56;10.70;;;4.30;;
16824;SDS011;8529;48.108;-1.706;2024-01-15T11:55:26;6.90;;;3.80;;
16824;SDS011;8529;48.108;-1.706;2024-01-15T11:57:54;9.40;;;4.10;;
16824;SDS011;8529;48.108;-1.706;2024-01-15T12:00:22;10.77;;;4.10;;
16824;SDS011;8529;48.108;-1.706;2024-01-15T12:02:49;7.27;;;3.50;;
16824;SDS011;8529;48.108;-1.706;2024-01-15T12:05:18;7.20;;;3.63;;
16824;SDS011;8529;48.108;-1.706;2024-01-15T12:07:47;8.17;;;4.10;;
16824;SDS011;8529;48.108;-1.706;2024-01-15T12:10:15;8.80;;;4.17;;
16824;SDS011;8529;48.108;-1.706;2024-01-15T12:12:49;7.20;;;3.67;;
16824;SDS011;8529;48.108;-1.706;2024-01-15T12:15:18;9.43;;;4.40;;
16824;SDS011;8529;48.108;-1.706;2024-01-15T12:17:45;9.53;;;4.27;;
16824;SDS011;8529;48.108;-1.706;2024-01-15T12:20:13;11.07;;;4.03;;
16824;SDS011;8529;48.108;-1.706;2024-01-15T12:22:42;11.60;;;4.77;;
16824;SDS011;8529;48.108;-1.706;2024-01-15T12:25:09;7.63;;;3.80;;
16824;SDS011;8529;48.108;-1.706;2024-01-15T12:27:36;7.27;;;3.47;;
16824;SDS011;8529;48.108;-1.706;2024-01-15T12:30:04;5.50;;;3.30;;
16824;SDS011;8529;48.108;-1.706;2024-01-15T12:32:32;6.57;;;3.60;;
16824;SDS011;8529;48.108;-1.706;2024-01-15T12:35:00;10.97;;;3.90;;
16824;SDS011;8529;48.108;-1.706;2024-01-15T12:37:27;8.87;;;4.10;;
16824;SDS011;8529;48.108;-1.706;2024-01-15T12:39:57;7.43;;;4.07;;
16824;SDS011;8529;48.108;-1.706;2024-01-15T12:42:25;7.30;;;4.17;;
16824;SDS011;8529;48.108;-1.706;2024-01-15T12:44:52;6.63;;;3.77;;
16824;SDS011;8529;48.108;-1.706;2024-01-15T12:47:21;9.20;;;4.00;;
16824;SDS011;8529;48.108;-1.706;2024-01-15T12:49:50;9.23;;;4.43;;
16824;SDS011;8529;48.108;-1.706;2024-01-15T12:52:19;14.60;;;5.10;;
16824;SDS011;8529;48.108;-1.706;2024-01-15T12:54:47;9.57;;;4.17;;
16824;SDS011;8529;48.108;-1.706;2024-01-15T12:57:15;7.43;;;3.70;;
16824;SDS011;8529;48.108;-1.706;2024-01-15T12:59:42;8.47;;;3.70;;
16824;SDS011;8529;48.108;-1.706;2024-01-15T13:02:10;6.27;;;2.40;;
16824;SDS011;8529;48.108;-1.706;2024-01-15T13:04:37;4.77;;;2.33;;
16824;SDS011;8529;48.108;-1.706;2024-01-15T13:07:04;4.43;;;1.90;;
16824;SDS011;8529;48.108;-1.706;2024-01-15T13:09:32;2.73;;;1.97;;
16824;SDS011;8529;48.108;-1.706;2024-01-15T13:11:59;9.77;;;2.50;;
16824;SDS011;8529;48.108;-1.706;2024-01-15T13:14:28;4.03;;;2.17;;
16824;SDS011;8529;48.108;-1.706;2024-01-15T13:16:55;3.97;;;2.70;;
16824;SDS011;8529;48.108;-1.706;2024-01-15T13:19:23;3.20;;;2.03;;
16824;SDS011;8529;48.108;-1.706;2024-01-15T13:21:50;5.90;;;2.13;;
16824;SDS011;8529;48.108;-1.706;2024-01-15T13:24:18;2.80;;;1.60;;
16824;SDS011;8529;48.108;-1.706;2024-01-15T13:26:45;3.47;;;2.00;;
16824;SDS011;8529;48.108;-1.706;2024-01-15T13:29:13;4.47;;;2.27;;
16824;SDS011;8529;48.108;-1.706;2024-01-15T13:31:41;3.37;;;1.90;;
16824;SDS011;8529;48.108;-1.706;2024-01-15T13:34:11;5.60;;;1.83;;
16824;SDS011;8529;48.108;-1.706;2024-01-15T13:36:39;5.83;;;2.00;;
16824;SDS011;8529;48.108;-1.706;2024-01-15T13:39:06;3.97;;;2.10;;
16824;SDS011;8529;48.108;-1.706;2024-01-15T13:41:34;4.53;;;2.20;;
16824;SDS011;8529;48.108;-1.706;2024-01-15T13:44:01;4.23;;;2.20;;
16824;SDS011;8529;48.108;-1.706;2024-01-15T13:46:28;4.40;;;2.17;;
16824;SDS011;8529;48.108;-1.706;2024-01-15T13:48:57;5.90;;;2.87;;
16824;SDS011;8529;48.108;-1.706;2024-01-15T13:51:24;6.97;;;2.97;;
16824;SDS011;8529;48.108;-1.706;2024-01-15T13:53:51;4.27;;;2.50;;
16824;SDS011;8529;48.108;-1.706;2024-01-15T13:56:19;8.23;;;3.13;;
16824;SDS011;8529;48.108;-1.706;2024-01-15T13:58:46;5.73;;;2.60;;
16824;SDS011;8529;48.108;-1.706;2024-01-15T14:01:14;3.43;;;2.00;;
16824;SDS011;8529;48.108;-1.706;2024-01-15T14:03:42;6.50;;;2.60;;
16824;SDS011;8529;48.108;-1.706;2024-01-15T14:06:11;4.40;;;2.40;;
16824;SDS011;8529;48.108;-1.706;2024-01-15T14:08:38;6.17;;;2.70;;
16824;SDS011;8529;48.108;-1.706;2024-01-15T14:11:05;5.17;;;2.13;;
16824;SDS011;8529;48.108;-1.706;2024-01-15T14:13:32;3.37;;;1.77;;
16824;SDS011;8529;48.108;-1.706;2024-01-15T14:15:59;4.10;;;1.73;;
16824;SDS011;8529;48.108;-1.706;2024-01-15T14:18:27;4.93;;;2.00;;
16824;SDS011;8529;48.108;-1.706;2024-01-15T14:20:54;2.53;;;1.67;;
16824;SDS011;8529;48.108;-1.706;2024-01-15T14:23:22;4.70;;;2.10;;
16824;SDS011;8529;48.108;-1.706;2024-01-15T14:25:51;5.10;;;2.07;;
16824;SDS011;8529;48.108;-1.706;2024-01-15T14:28:18;3.80;;;1.80;;
16824;SDS011;8529;48.108;-1.706;2024-01-15T14:30:45;5.33;;;2.10;;
16824;SDS011;8529;48.108;-1.706;2024-01-15T14:33:12;4.40;;;1.67;;
16824;SDS011;8529;48.108;-1.706;2024-01-15T14:35:40;4.23;;;2.10;;